Main page
METAR-TAF:

METAR-TAF

Airports :

Sioux Falls Regional Airport

Sioux Falls, South Dakota, United States

latitude: 43-34-37N, longitude: 096-45-13W, elevation: 1427 ft

Current weather observation

The report was made 55 minutes ago, at 08:56 UTC
Wind 15 mph from the Northwest
Temperature -4°F
Humidity 64%
Pressure 30.42 in. Hg
Visibility: 10 miles
Clear sky

METAR: KFSD 190856Z AUTO 32013KT 10SM CLR M20/M25 A3042 RMK AO2 SLP342 T12001250 53014 $

Time: 03:51 (09:51 UTC)

Forecast

The report was made 4 hours and 31 minutes ago, at 05:20 UTC
Forecast valid from 19 at 06 UTC to 20 at 06 UTC
Wind 21 mph from the Northwest with gusts up to 30 mph
Visibility: 6 miles
Clear sky
From 19 at 1300 UTC
Wind 12 mph from the Northwest with gusts up to 21 mph
Visibility: 6 miles
Few clouds at a height of 25000 ft
From 19 at 1600 UTC
Wind 10 mph from the Northwest
Visibility: 6 miles
Few clouds at a height of 25000 ft

TAF: KFSD 190520Z 1906/2006 31018G26KT P6SM SKC FM191300 31010G18KT P6SM FEW250 FM191600 31009KT P6SM FEW250

Weather observations and forecasts of more than 4000 airports (METAR and TAF reports).

The available stations are represented by yellow and red dots on the map.

Hover mouse over dot to see the name of the station.

Then click to see weather observations and forecasts.

To change the map : click on the green buttons with a black cross to zoom in, on the green button with a dash to zoom out, or on the green arrows for adjacent maps.


METAR-TAF: